createdAt,value
2023-01-20T00:02:03.659Z,14.00
2023-01-20T00:04:35.412Z,14.10
2023-01-20T00:07:07.155Z,14.80
2023-01-20T00:09:39.252Z,13.50
2023-01-20T00:12:11.090Z,13.20
2023-01-20T00:14:42.916Z,13.00
2023-01-20T00:17:14.642Z,11.90
2023-01-20T00:19:46.448Z,13.70
2023-01-20T00:22:18.217Z,11.20
2023-01-20T00:24:49.923Z,10.80
2023-01-20T00:27:21.705Z,15.60
2023-01-20T00:29:53.554Z,14.70
2023-01-20T00:32:25.460Z,13.70
2023-01-20T00:34:57.457Z,14.90
2023-01-20T00:37:29.304Z,14.40
2023-01-20T00:40:01.170Z,13.90
2023-01-20T00:42:33.086Z,12.60
2023-01-20T00:45:05.212Z,13.00
2023-01-20T00:47:36.976Z,14.60
2023-01-20T00:50:10.172Z,15.30
2023-01-20T00:52:42.058Z,13.70
2023-01-20T00:55:14.712Z,11.60
2023-01-20T00:57:46.710Z,11.40
2023-01-20T01:00:20.088Z,12.30
2023-01-20T01:02:54.816Z,11.50
2023-01-20T01:05:26.958Z,13.30
2023-01-20T01:07:58.762Z,12.10
2023-01-20T01:10:30.623Z,14.00
2023-01-20T01:13:05.313Z,14.60
2023-01-20T01:15:37.424Z,14.50
2023-01-20T01:18:09.262Z,14.20
2023-01-20T01:20:41.724Z,15.50
2023-01-20T01:23:13.759Z,13.40
2023-01-20T01:25:45.476Z,12.60
2023-01-20T01:28:17.694Z,15.90
2023-01-20T01:30:49.499Z,13.90
2023-01-20T01:33:21.393Z,16.90
2023-01-20T01:35:59.152Z,15.40
2023-01-20T01:38:31.641Z,15.50
2023-01-20T01:41:03.768Z,13.60
2023-01-20T01:43:37.867Z,12.40
2023-01-20T01:46:09.807Z,13.90
2023-01-20T01:48:43.518Z,15.00
2023-01-20T01:51:18.804Z,16.00
2023-01-20T01:53:54.302Z,16.20
2023-01-20T01:56:26.949Z,14.80
2023-01-20T01:59:01.040Z,14.10
2023-01-20T02:01:33.400Z,14.50
2023-01-20T02:04:07.113Z,14.30
2023-01-20T02:06:42.127Z,13.60
2023-01-20T02:09:14.293Z,11.70
2023-01-20T02:11:49.468Z,9.70
2023-01-20T02:14:23.165Z,11.50
2023-01-20T02:17:00.497Z,15.00
2023-01-20T02:20:02.446Z,15.40
2023-01-20T02:22:41.303Z,14.80
2023-01-20T02:25:36.914Z,15.80
2023-01-20T02:28:38.723Z,14.30
2023-01-20T02:31:22.659Z,13.90
2023-01-20T02:33:57.780Z,12.30
2023-01-20T02:36:33.701Z,11.90
2023-01-20T02:39:09.574Z,10.60
2023-01-20T02:41:46.946Z,14.20
2023-01-20T02:44:24.321Z,14.70
2023-01-20T02:47:00.167Z,14.80
2023-01-20T02:49:35.615Z,14.70
2023-01-20T02:52:11.092Z,13.20
2023-01-20T02:54:46.134Z,12.30
2023-01-20T02:57:23.148Z,12.80
2023-01-20T02:59:57.205Z,12.00
2023-01-20T03:02:30.731Z,11.70
2023-01-20T03:05:07.528Z,14.50
2023-01-20T03:07:41.532Z,15.10
2023-01-20T03:10:17.443Z,15.50
2023-01-20T03:12:54.246Z,13.30
2023-01-20T03:15:29.604Z,14.20
2023-01-20T03:18:01.397Z,13.40
2023-01-20T03:20:33.304Z,13.20
2023-01-20T03:23:05.025Z,12.00
2023-01-20T03:25:38.209Z,12.50
2023-01-20T03:28:10.083Z,13.60
2023-01-20T03:30:41.971Z,16.00
2023-01-20T03:33:14.850Z,15.70
2023-01-20T03:35:47.021Z,14.40
2023-01-20T03:38:18.953Z,14.80
2023-01-20T03:40:54.622Z,14.90
2023-01-20T03:43:32.405Z,14.60
2023-01-20T03:46:06.446Z,14.50
2023-01-20T03:48:43.215Z,16.50
2023-01-20T03:51:18.665Z,15.50
2023-01-20T03:53:53.922Z,15.40
2023-01-20T03:56:29.593Z,15.40
2023-01-20T03:59:03.437Z,14.90
2023-01-20T04:01:37.521Z,13.60
2023-01-20T04:04:12.779Z,15.10
2023-01-20T04:06:45.357Z,10.90
2023-01-20T04:09:34.484Z,11.50
2023-01-20T04:12:08.100Z,15.00
2023-01-20T04:14:40.034Z,13.10
2023-01-20T04:17:12.279Z,15.20
2023-01-20T04:19:44.322Z,13.80
2023-01-20T04:22:20.420Z,11.70
2023-01-20T04:24:54.304Z,13.50
2023-01-20T04:27:26.065Z,10.10
2023-01-20T04:29:58.040Z,13.30
2023-01-20T04:32:29.828Z,14.10
2023-01-20T04:35:01.637Z,12.00
2023-01-20T04:37:33.702Z,9.90
2023-01-20T04:40:05.738Z,14.70
2023-01-20T04:42:37.711Z,15.10
2023-01-20T04:45:11.253Z,11.60
2023-01-20T04:47:43.222Z,10.60
2023-01-20T04:50:16.615Z,15.40
2023-01-20T04:52:48.486Z,14.30
2023-01-20T04:55:20.328Z,13.90
2023-01-20T04:57:52.126Z,14.60
2023-01-20T05:00:24.464Z,13.30
2023-01-20T05:02:59.560Z,13.00
2023-01-20T05:05:31.413Z,12.50
2023-01-20T05:08:04.834Z,12.40
2023-01-20T05:10:36.893Z,9.90
2023-01-20T05:13:08.658Z,14.80
2023-01-20T05:15:41.969Z,15.20
2023-01-20T05:18:13.955Z,13.60
2023-01-20T05:20:47.334Z,14.00
2023-01-20T05:23:19.462Z,12.00
2023-01-20T05:25:53.931Z,13.90
2023-01-20T05:28:25.979Z,13.60
2023-01-20T05:30:57.858Z,13.90
2023-01-20T05:33:29.747Z,15.20
2023-01-20T05:36:01.557Z,15.50
2023-01-20T05:38:33.357Z,16.50
2023-01-20T05:41:06.255Z,15.30
2023-01-20T05:43:38.553Z,15.80
2023-01-20T05:46:10.498Z,12.90
2023-01-20T05:48:42.394Z,15.20
2023-01-20T05:51:14.163Z,17.50
2023-01-20T05:53:45.992Z,15.50
2023-01-20T05:56:17.916Z,14.50
2023-01-20T05:58:50.819Z,16.10
2023-01-20T06:01:23.237Z,13.90
2023-01-20T06:03:55.053Z,13.80
2023-01-20T06:06:27.580Z,14.40
2023-01-20T06:08:59.330Z,13.60
2023-01-20T06:11:31.186Z,14.80
2023-01-20T06:14:03.071Z,13.90
2023-01-20T06:16:34.857Z,14.50
2023-01-20T06:19:06.628Z,14.40
2023-01-20T06:21:38.333Z,14.30
2023-01-20T06:24:10.413Z,14.00
2023-01-20T06:26:42.158Z,14.00
2023-01-20T06:29:14.004Z,13.40
2023-01-20T06:31:45.856Z,15.20
2023-01-20T06:34:17.742Z,13.70
2023-01-20T06:36:49.458Z,14.60
2023-01-20T06:39:21.433Z,14.60
2023-01-20T06:41:53.199Z,15.20
2023-01-20T06:44:25.075Z,14.00
2023-01-20T06:46:58.270Z,12.10
2023-01-20T06:49:30.245Z,13.00
2023-01-20T06:52:02.004Z,14.70
2023-01-20T06:54:33.783Z,15.20
2023-01-20T06:57:05.550Z,13.50
2023-01-20T06:59:37.447Z,16.00
2023-01-20T07:02:10.211Z,14.40
2023-01-20T07:04:42.687Z,14.10
2023-01-20T07:07:15.341Z,13.80
2023-01-20T07:09:48.146Z,12.30
2023-01-20T07:12:19.856Z,16.30
2023-01-20T07:14:51.524Z,14.90
2023-01-20T07:17:23.471Z,13.30
2023-01-20T07:19:55.290Z,14.80
2023-01-20T07:22:26.960Z,12.80
2023-01-20T07:24:58.648Z,14.10
2023-01-20T07:27:30.443Z,14.80
2023-01-20T07:30:02.167Z,13.30
2023-01-20T07:32:34.216Z,14.90
2023-01-20T07:35:06.901Z,13.90
2023-01-20T07:37:38.699Z,14.00
2023-01-20T07:40:13.259Z,16.00
2023-01-20T07:42:44.991Z,13.90
2023-01-20T07:45:17.444Z,13.60
2023-01-20T07:47:49.198Z,13.10
2023-01-20T07:50:20.910Z,15.20
2023-01-20T07:52:52.696Z,13.70
2023-01-20T07:55:25.237Z,14.40
2023-01-20T07:57:57.379Z,20.10
2023-01-20T08:00:29.621Z,18.20
2023-01-20T08:03:01.401Z,18.40
2023-01-20T08:05:34.700Z,20.50
2023-01-20T08:08:06.612Z,20.60
2023-01-20T08:10:38.397Z,22.10
2023-01-20T08:13:10.064Z,23.20
2023-01-20T08:15:41.822Z,19.20
2023-01-20T08:18:13.575Z,23.20
2023-01-20T08:20:45.328Z,27.10
2023-01-20T08:23:17.155Z,24.20
2023-01-20T08:25:49.014Z,20.80
2023-01-20T08:28:21.024Z,27.10
2023-01-20T08:30:52.935Z,25.30
2023-01-20T08:33:24.731Z,22.90
2023-01-20T08:35:59.239Z,22.10
2023-01-20T08:38:30.958Z,18.90
2023-01-20T08:41:02.761Z,16.20
2023-01-20T08:43:34.545Z,15.30
2023-01-20T08:46:08.495Z,16.20
2023-01-20T08:48:43.078Z,11.60
2023-01-20T08:51:17.044Z,16.60
2023-01-20T08:53:48.927Z,18.00
2023-01-20T08:56:21.253Z,19.20
2023-01-20T08:58:54.104Z,16.00
2023-01-20T09:01:27.705Z,16.10
2023-01-20T09:04:05.768Z,14.70
2023-01-20T09:06:46.663Z,8.60
2023-01-20T09:09:20.171Z,12.50
2023-01-20T09:11:51.993Z,12.50
2023-01-20T09:14:25.274Z,13.10
2023-01-20T09:16:57.018Z,13.70
2023-01-20T09:19:28.744Z,11.00
2023-01-20T09:22:00.408Z,12.20
2023-01-20T09:24:32.196Z,11.40
2023-01-20T09:27:03.919Z,10.40
2023-01-20T09:29:36.861Z,9.20
2023-01-20T09:32:08.655Z,12.00
2023-01-20T09:34:40.397Z,11.20
2023-01-20T09:37:29.810Z,11.50
2023-01-20T09:40:19.154Z,8.80
2023-01-20T09:43:18.991Z,9.50
2023-01-20T09:45:56.210Z,11.10
2023-01-20T09:48:50.330Z,6.80
2023-01-20T09:51:45.804Z,14.00
2023-01-20T09:54:20.663Z,11.40
2023-01-20T09:59:26.206Z,11.40
2023-01-20T10:02:01.219Z,8.60
2023-01-20T10:04:37.462Z,9.90
2023-01-20T10:07:12.740Z,13.10
2023-01-20T10:09:50.533Z,12.30
2023-01-20T10:12:26.515Z,11.10
2023-01-20T10:15:06.837Z,13.50
2023-01-20T10:17:41.146Z,13.60
2023-01-20T10:20:17.031Z,13.50
2023-01-20T10:22:54.251Z,11.50
2023-01-20T10:25:29.351Z,12.10
2023-01-20T10:28:08.052Z,12.50
2023-01-20T10:30:40.526Z,14.50
2023-01-20T10:33:13.867Z,14.20
2023-01-20T10:35:47.787Z,15.40
2023-01-20T10:38:22.681Z,14.30
2023-01-20T10:43:26.934Z,11.10
2023-01-20T10:46:07.973Z,12.40
2023-01-20T10:48:55.049Z,10.20
2023-01-20T10:51:31.282Z,11.70
2023-01-20T10:54:10.752Z,11.90
2023-01-20T10:56:45.567Z,15.60
2023-01-20T11:02:02.542Z,16.50
2023-01-20T11:04:42.359Z,15.40
2023-01-20T11:07:18.312Z,14.50
2023-01-20T11:09:51.308Z,12.20
2023-01-20T11:12:26.177Z,10.70
2023-01-20T11:14:58.480Z,9.00
2023-01-20T11:17:30.262Z,11.70
2023-01-20T11:20:08.006Z,12.70
2023-01-20T11:22:40.270Z,13.60
2023-01-20T11:25:27.320Z,15.20
2023-01-20T11:30:32.918Z,10.90
2023-01-20T11:33:21.678Z,11.00
2023-01-20T11:36:04.722Z,9.90
2023-01-20T11:38:44.572Z,14.10
2023-01-20T11:41:23.892Z,10.40
2023-01-20T11:43:57.092Z,14.20
2023-01-20T11:46:34.066Z,12.20
2023-01-20T11:49:22.011Z,10.90
2023-01-20T11:51:55.601Z,12.90
2023-01-20T11:54:29.360Z,13.70
2023-01-20T11:57:04.836Z,9.90
2023-01-20T11:59:39.140Z,6.10
2023-01-20T12:02:25.300Z,14.80
2023-01-20T12:05:13.880Z,11.50
2023-01-20T12:07:49.095Z,8.90
2023-01-20T12:10:23.868Z,16.00
2023-01-20T12:12:58.749Z,15.90
2023-01-20T12:15:32.762Z,14.20
2023-01-20T12:18:09.570Z,14.00
2023-01-20T12:20:54.619Z,12.50
2023-01-20T12:23:45.884Z,13.80
2023-01-20T12:26:19.162Z,17.30
2023-01-20T12:28:57.388Z,16.30
2023-01-20T12:31:29.278Z,8.50
2023-01-20T12:34:02.538Z,16.10
2023-01-20T12:37:13.312Z,14.30
2023-01-20T12:39:52.844Z,12.50
2023-01-20T12:43:06.520Z,10.80
2023-01-20T12:45:57.290Z,12.80
2023-01-20T12:48:35.278Z,14.60
2023-01-20T12:51:15.954Z,14.70
2023-01-20T12:54:01.482Z,14.60
2023-01-20T12:56:40.108Z,12.60
2023-01-20T12:59:21.023Z,10.50
2023-01-20T13:02:06.597Z,12.30
2023-01-20T13:04:58.618Z,12.10
2023-01-20T13:07:52.730Z,11.00
2023-01-20T13:10:34.553Z,11.10
2023-01-20T13:13:19.402Z,11.70
2023-01-20T13:15:57.578Z,12.00
2023-01-20T13:18:35.478Z,10.50
2023-01-20T13:21:07.510Z,11.80
2023-01-20T13:23:39.613Z,10.30
2023-01-20T13:26:14.218Z,12.00
2023-01-20T13:28:55.472Z,9.10
2023-01-20T13:31:46.244Z,5.10
2023-01-20T13:34:38.947Z,11.10
2023-01-20T13:37:36.870Z,11.50
2023-01-20T13:40:50.620Z,10.60
2023-01-20T13:43:41.067Z,10.20
2023-01-20T13:46:49.292Z,9.80
2023-01-20T13:49:48.022Z,9.30
2023-01-20T13:52:57.162Z,10.70
2023-01-20T13:55:32.847Z,8.00
2023-01-20T13:58:04.587Z,9.00
2023-01-20T14:00:37.572Z,7.10
2023-01-20T14:03:18.882Z,11.80
2023-01-20T14:05:53.301Z,10.10
2023-01-20T14:08:26.391Z,11.40
2023-01-20T14:11:12.751Z,9.70
2023-01-20T14:13:53.283Z,11.50
2023-01-20T14:16:27.855Z,5.50
2023-01-20T14:19:01.925Z,11.70
2023-01-20T14:21:41.931Z,9.80
2023-01-20T14:24:29.337Z,10.30
2023-01-20T14:27:15.473Z,11.30
2023-01-20T14:29:48.032Z,10.70
2023-01-20T14:32:22.586Z,8.60
2023-01-20T14:37:28.661Z,8.60
2023-01-20T14:40:02.996Z,9.70
2023-01-20T14:42:34.797Z,10.80
2023-01-20T14:45:21.073Z,10.00
2023-01-20T14:47:53.370Z,9.40
2023-01-20T14:50:25.169Z,8.00
2023-01-20T14:52:56.982Z,11.00
2023-01-20T14:55:34.282Z,10.30
2023-01-20T14:58:10.317Z,10.30
2023-01-20T15:00:46.615Z,11.60
2023-01-20T15:03:21.215Z,12.30
2023-01-20T15:05:59.259Z,7.80
2023-01-20T15:09:04.438Z,7.90
2023-01-20T15:11:37.919Z,11.80
2023-01-20T15:14:12.300Z,10.90
2023-01-20T15:16:53.716Z,11.00
2023-01-20T15:19:43.072Z,10.00
2023-01-20T15:22:22.925Z,10.20
2023-01-20T15:24:54.929Z,12.20
2023-01-20T15:27:29.445Z,10.60
2023-01-20T15:30:21.405Z,9.90
2023-01-20T15:32:55.140Z,8.30
2023-01-20T15:35:27.201Z,8.60
2023-01-20T15:37:59.039Z,11.20
2023-01-20T15:40:31.052Z,5.40
2023-01-20T15:43:02.927Z,8.50
2023-01-20T15:45:34.912Z,11.40
2023-01-20T15:48:12.627Z,10.20
2023-01-20T15:50:44.633Z,6.60
2023-01-20T15:53:16.778Z,10.10
2023-01-20T15:55:53.140Z,10.10
2023-01-20T15:58:27.635Z,9.90
2023-01-20T16:01:00.654Z,11.40
2023-01-20T16:03:35.528Z,9.80
2023-01-20T16:06:14.360Z,10.80
2023-01-20T16:08:48.006Z,11.10
2023-01-20T16:11:20.818Z,8.50
2023-01-20T16:13:52.778Z,10.30
2023-01-20T16:16:26.825Z,10.80
2023-01-20T16:19:00.604Z,11.50
2023-01-20T16:21:32.307Z,9.60
2023-01-20T16:24:04.045Z,10.00
2023-01-20T16:26:36.891Z,11.40
2023-01-20T16:29:09.733Z,5.50
2023-01-20T16:31:41.508Z,8.50
2023-01-20T16:34:13.188Z,6.70
2023-01-20T16:36:44.853Z,7.50
2023-01-20T16:39:16.713Z,4.30
2023-01-20T16:41:50.774Z,10.00
2023-01-20T16:44:22.534Z,9.90
2023-01-20T16:46:54.441Z,4.00
2023-01-20T16:49:26.178Z,6.10
2023-01-20T16:51:57.879Z,7.90
2023-01-20T16:54:29.701Z,7.50
2023-01-20T16:57:01.413Z,6.90
2023-01-20T16:59:33.488Z,3.50
2023-01-20T17:02:05.278Z,4.10
2023-01-20T17:04:37.789Z,7.70
2023-01-20T17:07:09.884Z,6.60
2023-01-20T17:09:41.777Z,7.80
2023-01-20T17:12:14.057Z,7.80
2023-01-20T17:14:45.804Z,7.90
2023-01-20T17:17:17.594Z,5.90
2023-01-20T17:19:49.657Z,7.00
2023-01-20T17:22:21.451Z,6.90
2023-01-20T17:24:53.301Z,7.00
2023-01-20T17:27:25.024Z,5.90
2023-01-20T17:29:56.960Z,9.60
2023-01-20T17:32:28.718Z,9.30
2023-01-20T17:35:00.519Z,9.50
2023-01-20T17:37:32.578Z,5.90
2023-01-20T17:40:04.599Z,8.10
2023-01-20T17:42:36.331Z,4.80
2023-01-20T17:45:09.520Z,8.90
2023-01-20T17:47:41.187Z,10.10
2023-01-20T17:50:13.916Z,8.40
2023-01-20T17:52:45.746Z,8.50
2023-01-20T17:55:17.993Z,7.40
2023-01-20T17:57:52.248Z,8.10
2023-01-20T18:00:25.308Z,9.50
2023-01-20T18:02:58.901Z,8.50
2023-01-20T18:05:30.976Z,7.90
2023-01-20T18:08:02.775Z,6.00
2023-01-20T18:10:34.450Z,6.80
2023-01-20T18:13:06.163Z,7.10
2023-01-20T18:15:42.686Z,8.60
2023-01-20T18:18:14.479Z,7.00
2023-01-20T18:20:46.148Z,8.80
2023-01-20T18:23:17.911Z,7.10
2023-01-20T18:25:49.656Z,6.90
2023-01-20T18:28:21.353Z,7.60
2023-01-20T18:30:53.475Z,8.20
2023-01-20T18:33:26.575Z,4.00
2023-01-20T18:35:58.892Z,7.20
2023-01-20T18:38:30.603Z,8.00
2023-01-20T18:41:03.192Z,8.20
2023-01-20T18:43:35.390Z,8.00
2023-01-20T18:46:07.724Z,6.90
2023-01-20T18:48:41.299Z,8.30
2023-01-20T18:51:14.989Z,7.50
2023-01-20T18:53:48.681Z,8.20
2023-01-20T18:56:20.351Z,6.60
2023-01-20T18:58:52.888Z,7.60
2023-01-20T19:01:26.310Z,9.70
2023-01-20T19:03:59.269Z,8.80
2023-01-20T19:06:34.253Z,7.50
2023-01-20T19:09:06.871Z,3.30
2023-01-20T19:11:41.854Z,7.40
2023-01-20T19:14:16.179Z,8.80
2023-01-20T19:16:49.379Z,8.00
2023-01-20T19:19:21.652Z,8.30
2023-01-20T19:21:59.651Z,8.70
2023-01-20T19:24:31.538Z,6.20
2023-01-20T19:27:03.800Z,8.10
2023-01-20T19:29:35.570Z,7.70
2023-01-20T19:32:07.627Z,9.10
2023-01-20T19:34:43.969Z,7.50
2023-01-20T19:37:15.683Z,8.50
2023-01-20T19:39:48.218Z,9.00
2023-01-20T19:42:25.707Z,7.30
2023-01-20T19:44:57.662Z,5.80
2023-01-20T19:47:31.522Z,6.60
2023-01-20T19:50:03.446Z,5.00
2023-01-20T19:52:35.155Z,7.20
2023-01-20T19:55:07.318Z,8.50
2023-01-20T19:57:39.043Z,5.40
2023-01-20T20:00:13.733Z,6.30
2023-01-20T20:02:45.855Z,8.00
2023-01-20T20:05:19.227Z,7.90
2023-01-20T20:07:51.219Z,5.20
2023-01-20T20:10:22.976Z,4.90
2023-01-20T20:12:54.671Z,7.40
2023-01-20T20:15:26.833Z,9.30
2023-01-20T20:17:58.584Z,8.00
2023-01-20T20:20:32.348Z,6.60
2023-01-20T20:23:05.527Z,4.80
2023-01-20T20:25:38.503Z,3.60
2023-01-20T20:28:11.173Z,7.00
2023-01-20T20:30:43.284Z,12.60
2023-01-20T20:33:19.309Z,9.30
2023-01-20T20:35:51.129Z,8.50
2023-01-20T20:38:27.168Z,3.80
2023-01-20T20:41:02.835Z,7.30
2023-01-20T20:43:34.951Z,6.10
2023-01-20T20:46:08.786Z,8.10
2023-01-20T20:48:40.860Z,5.50
2023-01-20T20:51:14.573Z,6.60
2023-01-20T20:53:46.965Z,6.90
2023-01-20T20:56:19.488Z,4.60
2023-01-20T20:59:00.896Z,8.70
2023-01-20T21:01:35.386Z,5.80
2023-01-20T21:04:07.640Z,6.20
2023-01-20T21:06:39.601Z,7.60
2023-01-20T21:09:12.352Z,4.50
2023-01-20T21:11:45.862Z,5.00
2023-01-20T21:14:20.668Z,7.90
2023-01-20T21:16:52.733Z,5.80
2023-01-20T21:19:24.972Z,6.30
2023-01-20T21:21:58.178Z,5.60
2023-01-20T21:24:30.116Z,4.80
2023-01-20T21:27:02.585Z,7.10
2023-01-20T21:29:34.344Z,8.10
2023-01-20T21:32:06.342Z,9.40
2023-01-20T21:34:38.238Z,5.10
2023-01-20T21:37:12.260Z,7.70
2023-01-20T21:39:46.547Z,6.90
2023-01-20T21:42:18.547Z,8.50
2023-01-20T21:44:50.252Z,3.30
2023-01-20T21:47:22.527Z,7.70
2023-01-20T21:50:12.707Z,7.10
2023-01-20T21:52:45.413Z,5.90
2023-01-20T21:55:19.235Z,7.90
2023-01-20T21:57:51.928Z,8.30
2023-01-20T22:00:24.215Z,5.30
2023-01-20T22:02:55.985Z,7.40
2023-01-20T22:05:27.789Z,5.80
2023-01-20T22:07:59.855Z,5.80
2023-01-20T22:10:32.633Z,4.70
2023-01-20T22:13:07.540Z,8.00
2023-01-20T22:15:40.444Z,8.10
2023-01-20T22:18:12.116Z,8.20
2023-01-20T22:20:43.972Z,4.40
2023-01-20T22:23:15.679Z,4.60
2023-01-20T22:25:47.450Z,5.10
2023-01-20T22:28:19.290Z,7.10
2023-01-20T22:30:50.962Z,5.60
2023-01-20T22:33:22.684Z,10.90
2023-01-20T22:35:56.541Z,7.40
2023-01-20T22:38:28.505Z,9.50
2023-01-20T22:41:05.213Z,9.40
2023-01-20T22:43:38.789Z,8.30
2023-01-20T22:46:11.127Z,6.10
2023-01-20T22:48:43.325Z,4.50
2023-01-20T22:51:17.033Z,6.90
2023-01-20T22:53:49.088Z,5.00
2023-01-20T22:56:22.657Z,7.10
2023-01-20T22:58:54.426Z,6.80
2023-01-20T23:01:27.550Z,6.20
2023-01-20T23:04:00.143Z,5.60
2023-01-20T23:06:33.698Z,4.20
2023-01-20T23:09:07.356Z,4.30
2023-01-20T23:11:40.236Z,3.90
2023-01-20T23:14:13.500Z,6.30
2023-01-20T23:16:45.606Z,6.60
2023-01-20T23:19:18.586Z,6.00
2023-01-20T23:21:50.319Z,6.20
2023-01-20T23:24:22.235Z,6.20
2023-01-20T23:26:54.029Z,6.80
2023-01-20T23:29:25.826Z,5.20
2023-01-20T23:31:58.102Z,6.80
2023-01-20T23:34:29.889Z,4.60
2023-01-20T23:37:01.706Z,5.50
2023-01-20T23:39:33.404Z,6.50
2023-01-20T23:42:05.312Z,3.80
2023-01-20T23:44:37.061Z,6.90
2023-01-20T23:47:10.342Z,3.00
2023-01-20T23:49:42.087Z,5.90
2023-01-20T23:52:13.903Z,6.40
2023-01-20T23:54:45.597Z,6.50
2023-01-20T23:57:17.341Z,6.00
2023-01-20T23:59:49.194Z,5.30
